createdAt,value
2023-03-06T00:00:30.131Z,72.16
2023-03-06T00:02:58.056Z,72.34
2023-03-06T00:05:33.683Z,72.19
2023-03-06T00:08:00.645Z,72.75
2023-03-06T00:10:31.365Z,72.84
2023-03-06T00:13:01.006Z,72.88
2023-03-06T00:15:28.460Z,72.67
2023-03-06T00:17:57.842Z,72.92
2023-03-06T00:20:25.934Z,73.12
2023-03-06T00:25:21.652Z,72.62
2023-03-06T00:27:49.206Z,71.75
2023-03-06T00:30:19.997Z,72.44
2023-03-06T00:32:46.946Z,72.89
2023-03-06T00:35:14.565Z,73.40
2023-03-06T00:37:41.689Z,74.70
2023-03-06T00:40:11.603Z,74.76
2023-03-06T00:42:42.086Z,74.19
2023-03-06T00:45:09.764Z,74.46
2023-03-06T00:47:36.648Z,73.82
2023-03-06T00:50:04.754Z,74.92
2023-03-06T00:52:31.788Z,74.26
2023-03-06T00:55:02.725Z,75.08
2023-03-06T00:57:29.414Z,75.18
2023-03-06T00:59:56.066Z,75.22
2023-03-06T01:02:22.831Z,75.16
2023-03-06T01:04:49.717Z,75.00
2023-03-06T01:07:16.428Z,75.16
2023-03-06T01:09:43.162Z,75.76
2023-03-06T01:12:10.559Z,75.73
2023-03-06T01:14:37.745Z,75.19
2023-03-06T01:17:04.932Z,75.49
2023-03-06T01:19:31.857Z,75.96
2023-03-06T01:22:00.131Z,76.28
2023-03-06T01:24:26.898Z,75.65
2023-03-06T01:26:53.389Z,75.31
2023-03-06T01:29:20.657Z,75.24
2023-03-06T01:34:19.036Z,75.52
2023-03-06T01:36:45.854Z,75.20
2023-03-06T01:39:12.595Z,75.59
2023-03-06T01:41:39.718Z,75.99
2023-03-06T01:44:06.600Z,75.09
2023-03-06T01:46:42.205Z,75.06
2023-03-06T01:49:14.747Z,74.88
2023-03-06T01:51:48.961Z,74.46
2023-03-06T01:54:29.295Z,74.57
2023-03-06T01:57:06.167Z,74.25
2023-03-06T01:59:37.049Z,74.42
2023-03-06T02:02:07.181Z,74.35
2023-03-06T02:04:34.626Z,73.91
2023-03-06T02:07:04.994Z,73.75
2023-03-06T02:09:34.425Z,75.01
2023-03-06T02:12:03.088Z,75.65
2023-03-06T02:14:30.655Z,76.04
2023-03-06T02:16:57.620Z,75.35
2023-03-06T02:19:46.333Z,75.17
2023-03-06T02:22:13.021Z,74.47
2023-03-06T02:24:50.225Z,74.33
2023-03-06T02:27:20.968Z,74.40
2023-03-06T02:29:49.285Z,74.39
2023-03-06T02:32:16.014Z,74.29
2023-03-06T02:34:50.259Z,74.65
2023-03-06T02:37:17.334Z,74.04
2023-03-06T02:39:50.022Z,74.19
2023-03-06T02:42:19.724Z,74.54
2023-03-06T02:44:47.508Z,74.05
2023-03-06T02:47:24.467Z,74.68
2023-03-06T02:49:51.252Z,74.38
2023-03-06T02:52:18.650Z,74.57
2023-03-06T02:54:45.483Z,74.72
2023-03-06T02:57:12.443Z,74.72
2023-03-06T02:59:39.144Z,74.08
2023-03-06T03:02:06.060Z,74.80
2023-03-06T03:04:32.772Z,74.73
2023-03-06T03:07:00.667Z,75.04
2023-03-06T03:09:28.498Z,74.79
2023-03-06T03:11:55.264Z,74.66
2023-03-06T03:14:24.505Z,74.87
2023-03-06T03:16:51.224Z,74.77
2023-03-06T03:19:17.922Z,74.89
2023-03-06T03:21:45.010Z,74.69
2023-03-06T03:24:12.119Z,74.48
2023-03-06T03:26:38.822Z,74.33
2023-03-06T03:29:05.622Z,74.91
2023-03-06T03:31:32.726Z,74.91
2023-03-06T03:34:00.324Z,75.13
2023-03-06T03:36:27.965Z,75.15
2023-03-06T03:38:54.830Z,75.38
2023-03-06T03:41:22.085Z,75.62
2023-03-06T03:43:48.892Z,75.79
2023-03-06T03:46:15.715Z,75.92
2023-03-06T03:48:42.643Z,75.83
2023-03-06T03:51:12.198Z,75.93
2023-03-06T03:53:39.464Z,76.32
2023-03-06T03:56:07.089Z,76.66
2023-03-06T03:58:33.917Z,76.96
2023-03-06T04:01:04.042Z,76.34
2023-03-06T04:03:30.758Z,76.30
2023-03-06T04:05:58.234Z,76.45
2023-03-06T04:08:26.022Z,76.80
2023-03-06T04:10:55.493Z,77.21
2023-03-06T04:13:23.096Z,76.57
2023-03-06T04:18:19.446Z,76.93
2023-03-06T04:20:47.763Z,76.64
2023-03-06T04:23:17.725Z,77.22
2023-03-06T04:25:45.079Z,77.12
2023-03-06T04:28:12.449Z,77.05
2023-03-06T04:30:39.280Z,77.46
2023-03-06T04:33:06.137Z,78.12
2023-03-06T04:35:35.173Z,77.34
2023-03-06T04:38:02.397Z,77.84
2023-03-06T04:40:31.483Z,78.05
2023-03-06T04:43:00.588Z,77.67
2023-03-06T04:45:28.752Z,77.39
2023-03-06T04:47:56.318Z,78.27
2023-03-06T04:50:24.791Z,77.81
2023-03-06T04:55:19.988Z,78.35
2023-03-06T04:57:47.705Z,77.79
2023-03-06T05:00:23.318Z,77.58
2023-03-06T05:05:19.771Z,78.45
2023-03-06T05:07:46.581Z,78.23
2023-03-06T05:10:15.962Z,77.46
2023-03-06T05:12:43.680Z,77.34
2023-03-06T05:15:12.092Z,77.48
2023-03-06T05:17:38.867Z,77.53
2023-03-06T05:20:09.211Z,77.53
2023-03-06T05:22:36.017Z,77.74
2023-03-06T05:25:03.447Z,77.65
2023-03-06T05:27:30.241Z,77.70
2023-03-06T05:29:56.899Z,78.24
2023-03-06T05:32:23.825Z,78.16
2023-03-06T05:34:51.194Z,78.19
2023-03-06T05:37:17.912Z,78.73
2023-03-06T05:39:44.774Z,78.70
2023-03-06T05:42:12.411Z,78.24
2023-03-06T05:44:39.127Z,77.72
2023-03-06T05:47:05.988Z,78.01
2023-03-06T05:49:37.562Z,78.23
2023-03-06T05:52:05.627Z,77.90
2023-03-06T05:54:34.220Z,78.56
2023-03-06T05:57:01.378Z,78.32
2023-03-06T05:59:29.255Z,78.77
2023-03-06T06:01:56.531Z,78.33
2023-03-06T06:04:26.456Z,78.27
2023-03-06T06:06:53.533Z,78.73
2023-03-06T06:09:21.068Z,78.84
2023-03-06T06:11:47.940Z,79.14
2023-03-06T06:14:15.172Z,78.63
2023-03-06T06:16:42.804Z,78.78
2023-03-06T06:19:09.472Z,78.92
2023-03-06T06:21:36.247Z,79.14
2023-03-06T06:24:03.072Z,79.09
2023-03-06T06:26:29.852Z,79.24
2023-03-06T06:28:57.657Z,79.48
2023-03-06T06:31:25.816Z,78.79
2023-03-06T06:36:21.424Z,79.72
2023-03-06T06:38:52.076Z,80.02
2023-03-06T06:41:39.286Z,79.94
2023-03-06T06:44:08.606Z,79.98
2023-03-06T06:49:18.984Z,79.61
2023-03-06T06:51:46.283Z,80.11
2023-03-06T06:54:13.068Z,79.86
2023-03-06T06:56:40.498Z,80.04
2023-03-06T06:59:16.667Z,79.47
2023-03-06T07:01:44.508Z,79.89
2023-03-06T07:04:14.431Z,79.55
2023-03-06T07:06:42.897Z,79.70
2023-03-06T07:09:10.220Z,80.36
2023-03-06T07:11:38.392Z,80.26
2023-03-06T07:14:05.250Z,79.88
2023-03-06T07:16:32.075Z,80.57
2023-03-06T07:18:59.844Z,80.96
2023-03-06T07:21:27.214Z,80.83
2023-03-06T07:23:54.545Z,81.40
2023-03-06T07:26:21.259Z,82.26
2023-03-06T07:31:19.427Z,83.64
2023-03-06T07:33:46.197Z,83.83
2023-03-06T07:36:14.032Z,84.75
2023-03-06T07:38:40.917Z,86.70
2023-03-06T07:41:13.357Z,89.66
2023-03-06T07:43:45.283Z,89.77
2023-03-06T07:46:14.554Z,89.95
2023-03-06T07:48:42.229Z,91.13
2023-03-06T07:51:15.415Z,90.78
2023-03-06T07:53:43.197Z,90.76
2023-03-06T07:56:12.010Z,90.36
2023-03-06T07:58:41.480Z,89.61
2023-03-06T08:01:11.081Z,91.41
2023-03-06T08:03:37.986Z,90.50
2023-03-06T08:06:09.077Z,90.63
2023-03-06T08:08:37.894Z,91.94
2023-03-06T08:11:04.810Z,89.77
2023-03-06T08:13:31.519Z,90.26
2023-03-06T08:15:59.943Z,89.74
2023-03-06T08:18:27.877Z,89.58
2023-03-06T08:21:06.608Z,88.27
2023-03-06T08:23:34.310Z,88.92
2023-03-06T08:26:04.825Z,86.27
2023-03-06T08:28:32.035Z,84.77
2023-03-06T08:30:59.185Z,84.90
2023-03-06T08:33:26.012Z,84.11
2023-03-06T08:36:03.770Z,85.09
2023-03-06T08:38:30.630Z,85.28
2023-03-06T08:40:57.773Z,84.74
2023-03-06T08:43:24.449Z,84.84
2023-03-06T08:45:53.675Z,83.49
2023-03-06T08:48:23.911Z,83.13
2023-03-06T08:50:50.716Z,83.46
2023-03-06T08:53:18.084Z,83.53
2023-03-06T08:55:45.265Z,84.04
2023-03-06T08:58:12.303Z,83.15
2023-03-06T09:00:42.011Z,83.74
2023-03-06T09:03:08.757Z,82.83
2023-03-06T09:05:35.659Z,82.62
2023-03-06T09:08:05.284Z,82.27
2023-03-06T09:10:32.257Z,81.96
2023-03-06T09:12:59.412Z,81.46
2023-03-06T09:15:26.615Z,81.97
2023-03-06T09:17:54.638Z,80.50
2023-03-06T09:20:21.628Z,81.30
2023-03-06T09:22:48.324Z,80.30
2023-03-06T09:25:20.308Z,80.42
2023-03-06T09:27:55.441Z,81.45
2023-03-06T09:30:19.186Z,80.19
2023-03-06T09:32:45.890Z,80.71
2023-03-06T09:35:14.607Z,79.25
2023-03-06T09:37:42.075Z,76.84
2023-03-06T09:40:22.211Z,77.21
2023-03-06T09:42:48.929Z,75.44
2023-03-06T09:45:15.704Z,75.47
2023-03-06T09:47:54.577Z,75.23
2023-03-06T09:50:33.298Z,73.95
2023-03-06T09:53:39.433Z,76.05
2023-03-06T09:56:20.372Z,74.86
2023-03-06T10:01:27.635Z,73.30
2023-03-06T10:04:16.456Z,72.93
2023-03-06T10:06:48.537Z,71.97
2023-03-06T10:09:20.522Z,72.52
2023-03-06T10:11:54.701Z,71.72
2023-03-06T10:14:36.944Z,71.70
2023-03-06T10:17:05.658Z,71.75
2023-03-06T10:19:38.303Z,71.08
2023-03-06T10:22:23.478Z,71.40
2023-03-06T10:24:54.675Z,70.95
2023-03-06T10:27:47.963Z,70.32
2023-03-06T10:30:41.654Z,69.75
2023-03-06T10:33:31.569Z,68.82
2023-03-06T10:35:58.728Z,69.71
2023-03-06T10:38:31.416Z,70.23
2023-03-06T10:41:01.182Z,70.41
2023-03-06T10:43:28.343Z,70.51
2023-03-06T10:45:55.161Z,72.18
2023-03-06T10:48:25.653Z,73.47
2023-03-06T10:53:26.374Z,76.68
2023-03-06T10:55:56.202Z,77.35
2023-03-06T10:58:31.482Z,77.63
2023-03-06T11:01:22.535Z,78.23
2023-03-06T11:03:49.964Z,78.54
2023-03-06T11:06:34.890Z,78.69
2023-03-06T11:09:23.798Z,76.62
2023-03-06T11:11:52.113Z,75.96
2023-03-06T11:14:23.169Z,72.51
2023-03-06T11:16:55.006Z,73.97
2023-03-06T11:19:28.183Z,72.24
2023-03-06T11:22:16.656Z,73.32
2023-03-06T11:24:48.582Z,71.69
2023-03-06T11:27:35.005Z,68.85
2023-03-06T11:30:14.784Z,69.22
2023-03-06T11:32:54.693Z,64.17
2023-03-06T11:35:25.024Z,65.75
2023-03-06T11:37:53.776Z,63.93
2023-03-06T11:40:36.469Z,63.25
2023-03-06T11:43:16.243Z,62.57
2023-03-06T11:45:46.481Z,61.02
2023-03-06T11:48:18.359Z,61.35
2023-03-06T11:50:48.142Z,60.56
2023-03-06T11:53:21.510Z,59.17
2023-03-06T11:55:54.727Z,60.06
2023-03-06T11:58:52.272Z,60.32
2023-03-06T12:01:21.673Z,61.00
2023-03-06T12:03:56.925Z,61.66
2023-03-06T12:06:49.514Z,61.44
2023-03-06T12:09:25.952Z,60.64
2023-03-06T12:11:55.142Z,60.13
2023-03-06T12:14:43.915Z,60.87
2023-03-06T12:17:25.659Z,60.42
2023-03-06T12:19:54.831Z,59.30
2023-03-06T12:22:37.358Z,59.88
2023-03-06T12:25:10.266Z,60.47
2023-03-06T12:27:46.267Z,60.47
2023-03-06T12:30:28.009Z,59.95
2023-03-06T12:32:57.877Z,58.55
2023-03-06T12:35:54.887Z,55.37
2023-03-06T12:38:24.856Z,53.94
2023-03-06T12:40:54.864Z,54.09
2023-03-06T12:43:36.498Z,54.68
2023-03-06T12:46:12.401Z,55.33
2023-03-06T12:48:42.699Z,56.46
2023-03-06T12:51:13.886Z,58.74
2023-03-06T12:53:41.467Z,58.14
2023-03-06T12:56:09.197Z,60.01
2023-03-06T12:58:48.120Z,58.33
2023-03-06T13:01:45.672Z,58.69
2023-03-06T13:04:40.159Z,59.04
2023-03-06T13:07:15.768Z,59.31
2023-03-06T13:09:53.881Z,58.30
2023-03-06T13:12:49.955Z,61.78
2023-03-06T13:15:35.134Z,66.43
2023-03-06T13:18:22.097Z,68.94
2023-03-06T13:20:49.778Z,68.14
2023-03-06T13:23:37.977Z,69.87
2023-03-06T13:26:09.914Z,72.45
2023-03-06T13:28:51.211Z,75.44
2023-03-06T13:31:33.350Z,76.16
2023-03-06T13:34:03.602Z,76.41
2023-03-06T13:36:36.698Z,75.15
2023-03-06T13:39:09.808Z,69.88
2023-03-06T13:41:45.556Z,60.52
2023-03-06T13:44:24.657Z,59.85
2023-03-06T13:46:53.784Z,60.39
2023-03-06T13:49:24.291Z,62.60
2023-03-06T13:51:54.724Z,63.12
2023-03-06T13:54:54.791Z,63.44
2023-03-06T13:57:27.655Z,62.17
2023-03-06T14:00:03.050Z,62.34
2023-03-06T14:05:19.807Z,64.22
2023-03-06T14:07:49.371Z,62.43
2023-03-06T14:10:25.529Z,61.75
2023-03-06T14:15:22.612Z,60.21
2023-03-06T14:17:54.799Z,59.17
2023-03-06T14:20:26.825Z,59.05
2023-03-06T14:25:32.067Z,58.01
2023-03-06T14:28:09.111Z,56.59
2023-03-06T14:30:49.574Z,56.67
2023-03-06T14:33:34.968Z,56.67
2023-03-06T14:36:08.293Z,56.76
2023-03-06T14:38:42.531Z,54.56
2023-03-06T14:41:11.789Z,54.43
2023-03-06T14:43:40.122Z,53.17
2023-03-06T14:46:07.150Z,53.33
2023-03-06T14:48:43.077Z,50.93
2023-03-06T14:51:25.698Z,48.73
2023-03-06T14:53:54.815Z,49.87
2023-03-06T14:56:27.463Z,52.56
2023-03-06T14:59:01.621Z,53.04
2023-03-06T15:01:40.510Z,53.36
2023-03-06T15:04:28.551Z,53.97
2023-03-06T15:06:57.185Z,51.99
2023-03-06T15:09:32.788Z,51.82
2023-03-06T15:12:31.275Z,52.84
2023-03-06T15:15:04.373Z,53.00
2023-03-06T15:17:38.493Z,52.21
2023-03-06T15:20:08.522Z,52.21
2023-03-06T15:22:40.769Z,54.70
2023-03-06T15:25:16.240Z,54.60
2023-03-06T15:27:50.213Z,55.39
2023-03-06T15:30:31.716Z,58.53
2023-03-06T15:33:19.456Z,60.83
2023-03-06T15:35:53.965Z,60.99
2023-03-06T15:38:25.516Z,61.67
2023-03-06T15:40:53.871Z,61.47
2023-03-06T15:43:21.050Z,62.13
2023-03-06T15:45:47.853Z,61.43
2023-03-06T15:48:17.738Z,61.53
2023-03-06T15:50:44.879Z,61.73
2023-03-06T15:53:11.614Z,62.16
2023-03-06T15:55:38.998Z,62.30
2023-03-06T15:58:05.864Z,62.58
2023-03-06T16:00:35.701Z,63.14
2023-03-06T16:03:03.339Z,63.27
2023-03-06T16:05:30.838Z,63.08
2023-03-06T16:07:57.800Z,63.17
2023-03-06T16:10:27.675Z,63.56
2023-03-06T16:12:55.838Z,63.11
2023-03-06T16:15:30.573Z,62.61
2023-03-06T16:17:58.430Z,63.02
2023-03-06T16:20:28.077Z,63.65
2023-03-06T16:22:55.639Z,63.37
2023-03-06T16:25:24.885Z,63.57
2023-03-06T16:27:58.139Z,64.25
2023-03-06T16:30:28.351Z,64.37
2023-03-06T16:32:55.024Z,64.02
2023-03-06T16:35:22.507Z,64.68
2023-03-06T16:37:50.197Z,64.15
2023-03-06T16:40:32.780Z,64.25
2023-03-06T16:42:59.712Z,63.87
2023-03-06T16:45:27.049Z,64.18
2023-03-06T16:50:33.803Z,63.78
2023-03-06T16:53:01.716Z,64.87
2023-03-06T16:55:29.114Z,65.48
2023-03-06T16:57:56.167Z,65.99
2023-03-06T17:00:25.226Z,66.68
2023-03-06T17:05:20.140Z,67.88
2023-03-06T17:07:47.453Z,68.66
2023-03-06T17:10:16.517Z,69.31
2023-03-06T17:12:44.087Z,69.88
2023-03-06T17:15:11.746Z,70.00
2023-03-06T17:17:38.474Z,71.07
2023-03-06T17:20:08.523Z,71.66
2023-03-06T17:22:36.437Z,71.76
2023-03-06T17:25:08.362Z,72.35
2023-03-06T17:27:35.958Z,72.86
2023-03-06T17:30:02.952Z,73.25
2023-03-06T17:32:29.731Z,73.62
2023-03-06T17:34:56.970Z,73.81
2023-03-06T17:37:23.859Z,74.13
2023-03-06T17:39:51.544Z,74.32
2023-03-06T17:42:18.618Z,74.97
2023-03-06T17:44:45.338Z,75.15
2023-03-06T17:47:12.446Z,76.21
2023-03-06T17:49:39.294Z,76.31
2023-03-06T17:52:06.765Z,77.00
2023-03-06T17:54:34.799Z,77.39
2023-03-06T17:57:03.724Z,77.85
2023-03-06T17:59:34.084Z,78.51
2023-03-06T18:02:02.148Z,78.82
2023-03-06T18:04:29.691Z,79.10
2023-03-06T18:06:59.189Z,79.41
2023-03-06T18:09:26.663Z,79.80
2023-03-06T18:11:55.205Z,79.32
2023-03-06T18:14:22.293Z,79.88
2023-03-06T18:16:49.228Z,80.08
2023-03-06T18:19:16.627Z,79.67
2023-03-06T18:21:43.723Z,79.73
2023-03-06T18:24:11.599Z,80.12
2023-03-06T18:26:42.600Z,79.99
2023-03-06T18:29:09.488Z,79.70
2023-03-06T18:31:41.686Z,79.49
2023-03-06T18:34:12.282Z,79.69
2023-03-06T18:36:40.381Z,79.20
2023-03-06T18:39:09.749Z,79.46
2023-03-06T18:41:37.306Z,78.67
2023-03-06T18:44:05.477Z,79.30
2023-03-06T18:46:35.901Z,78.89
2023-03-06T18:49:03.075Z,79.03
2023-03-06T18:51:31.963Z,78.64
2023-03-06T18:54:00.639Z,78.41
2023-03-06T18:56:28.220Z,78.48
2023-03-06T18:58:55.640Z,78.35
2023-03-06T19:01:23.131Z,78.29
2023-03-06T19:03:50.416Z,77.92
2023-03-06T19:06:17.628Z,77.81
2023-03-06T19:08:44.746Z,77.95
2023-03-06T19:11:15.797Z,77.60
2023-03-06T19:13:42.956Z,77.74
2023-03-06T19:16:23.621Z,77.31
2023-03-06T19:18:50.764Z,77.21
2023-03-06T19:21:22.812Z,77.01
2023-03-06T19:23:49.754Z,77.72
2023-03-06T19:26:18.935Z,77.34
2023-03-06T19:28:46.579Z,76.92
2023-03-06T19:31:21.278Z,77.03
2023-03-06T19:33:49.559Z,77.03
2023-03-06T19:36:18.335Z,77.21
2023-03-06T19:41:19.555Z,77.58
2023-03-06T19:43:52.443Z,77.46
2023-03-06T19:46:20.387Z,77.72
2023-03-06T19:48:47.683Z,77.83
2023-03-06T19:51:14.663Z,78.06
2023-03-06T19:53:42.161Z,78.25
2023-03-06T19:56:21.688Z,78.16
2023-03-06T19:58:48.813Z,78.22
2023-03-06T20:01:20.664Z,78.51
2023-03-06T20:03:49.668Z,78.85
2023-03-06T20:06:19.373Z,78.61
2023-03-06T20:08:47.430Z,78.94
2023-03-06T20:11:21.709Z,79.04
2023-03-06T20:13:48.762Z,79.11
2023-03-06T20:16:19.063Z,78.84
2023-03-06T20:18:46.201Z,79.46
2023-03-06T20:21:13.943Z,79.35
2023-03-06T20:23:41.351Z,79.40
2023-03-06T20:26:10.969Z,79.49
2023-03-06T20:28:39.365Z,79.39
2023-03-06T20:31:11.348Z,79.27
2023-03-06T20:33:38.160Z,79.42
2023-03-06T20:36:11.671Z,79.05
2023-03-06T20:38:39.246Z,78.06
2023-03-06T20:41:09.127Z,78.41
2023-03-06T20:43:36.112Z,77.92
2023-03-06T20:46:04.281Z,77.68
2023-03-06T20:48:31.924Z,77.19
2023-03-06T20:51:06.217Z,77.11
2023-03-06T20:53:35.328Z,77.17
2023-03-06T20:56:05.312Z,76.15
2023-03-06T20:58:32.729Z,76.17
2023-03-06T21:01:02.026Z,75.90
2023-03-06T21:03:29.574Z,76.09
2023-03-06T21:05:57.105Z,75.99
2023-03-06T21:08:24.158Z,75.83
2023-03-06T21:10:51.269Z,74.70
2023-03-06T21:13:18.097Z,74.52
2023-03-06T21:15:47.614Z,74.81
2023-03-06T21:18:14.500Z,74.86
2023-03-06T21:20:41.887Z,74.42
2023-03-06T21:23:09.406Z,74.57
2023-03-06T21:25:37.041Z,74.75
2023-03-06T21:28:03.888Z,73.71
2023-03-06T21:30:30.674Z,73.68
2023-03-06T21:32:57.400Z,74.61
2023-03-06T21:35:24.128Z,73.80
2023-03-06T21:37:50.990Z,73.83
2023-03-06T21:40:17.802Z,74.26
2023-03-06T21:42:44.582Z,74.27
2023-03-06T21:45:12.193Z,74.05
2023-03-06T21:47:39.131Z,74.15
2023-03-06T21:50:08.484Z,73.85
2023-03-06T21:52:37.475Z,73.76
2023-03-06T21:55:05.046Z,73.80
2023-03-06T21:57:31.803Z,73.40
2023-03-06T21:59:58.728Z,72.62
2023-03-06T22:02:29.368Z,72.82
2023-03-06T22:04:56.004Z,73.07
2023-03-06T22:07:23.191Z,72.54
2023-03-06T22:12:19.636Z,72.77
2023-03-06T22:14:46.320Z,72.44
2023-03-06T22:17:13.349Z,72.47
2023-03-06T22:19:40.166Z,72.31
2023-03-06T22:22:07.589Z,72.38
2023-03-06T22:24:35.415Z,72.01
2023-03-06T22:27:02.088Z,71.69
2023-03-06T22:29:28.832Z,71.91
2023-03-06T22:31:55.600Z,71.89
2023-03-06T22:34:22.719Z,72.01
2023-03-06T22:36:49.535Z,72.23
2023-03-06T22:39:16.295Z,71.97
2023-03-06T22:41:42.988Z,72.32
2023-03-06T22:44:15.802Z,72.29
2023-03-06T22:46:42.539Z,72.42
2023-03-06T22:49:11.328Z,72.40
2023-03-06T22:51:38.377Z,72.65
2023-03-06T22:54:06.121Z,72.18
2023-03-06T22:56:33.412Z,72.34
2023-03-06T22:59:00.676Z,72.63
2023-03-06T23:01:30.708Z,73.06
2023-03-06T23:04:00.152Z,72.84
2023-03-06T23:06:37.241Z,73.07
2023-03-06T23:09:16.352Z,73.03
2023-03-06T23:11:43.179Z,72.85
2023-03-06T23:14:12.528Z,73.07
2023-03-06T23:16:39.608Z,73.24
2023-03-06T23:19:06.888Z,73.61
2023-03-06T23:21:34.649Z,73.50
2023-03-06T23:24:01.958Z,73.19
2023-03-06T23:26:30.499Z,73.92
2023-03-06T23:29:01.430Z,73.44
2023-03-06T23:31:30.456Z,73.52
2023-03-06T23:33:59.591Z,73.79
2023-03-06T23:36:27.637Z,73.86
2023-03-06T23:38:55.648Z,73.78
2023-03-06T23:41:27.101Z,73.54
2023-03-06T23:46:19.975Z,73.70
2023-03-06T23:48:46.761Z,73.75
2023-03-06T23:51:19.126Z,74.13
2023-03-06T23:53:47.151Z,73.72
2023-03-06T23:56:14.402Z,74.30
2023-03-06T23:58:41.349Z,73.91
